sensor_id;sensor_type;location;lat;lon;timestamp;P1;durP1;ratioP1;P2;durP2;ratioP2
21101;SDS011;10709;49.006;12.100;2023-02-18T00:01:30;1.77;;;1.40;;
21101;SDS011;10709;49.006;12.100;2023-02-18T00:03:57;2.67;;;1.23;;
21101;SDS011;10709;49.006;12.100;2023-02-18T00:06:26;2.37;;;1.30;;
21101;SDS011;10709;49.006;12.100;2023-02-18T00:08:54;1.47;;;1.30;;
21101;SDS011;10709;49.006;12.100;2023-02-18T00:11:22;1.83;;;1.40;;
21101;SDS011;10709;49.006;12.100;2023-02-18T00:13:55;1.53;;;1.43;;
21101;SDS011;10709;49.006;12.100;2023-02-18T00:16:25;2.63;;;1.20;;
21101;SDS011;10709;49.006;12.100;2023-02-18T00:18:56;1.53;;;1.23;;
21101;SDS011;10709;49.006;12.100;2023-02-18T00:21:27;1.77;;;1.20;;
21101;SDS011;10709;49.006;12.100;2023-02-18T00:23:54;1.40;;;1.20;;
21101;SDS011;10709;49.006;12.100;2023-02-18T00:26:21;3.23;;;1.33;;
21101;SDS011;10709;49.006;12.100;2023-02-18T00:28:47;1.70;;;1.43;;
21101;SDS011;10709;49.006;12.100;2023-02-18T00:31:16;1.83;;;1.33;;
21101;SDS011;10709;49.006;12.100;2023-02-18T00:33:44;2.50;;;1.43;;
21101;SDS011;10709;49.006;12.100;2023-02-18T00:36:13;2.50;;;1.60;;
21101;SDS011;10709;49.006;12.100;2023-02-18T00:38:44;2.20;;;1.33;;
21101;SDS011;10709;49.006;12.100;2023-02-18T00:41:15;1.87;;;1.60;;
21101;SDS011;10709;49.006;12.100;2023-02-18T00:43:42;1.67;;;1.30;;
21101;SDS011;10709;49.006;12.100;2023-02-18T00:46:10;2.27;;;1.47;;
21101;SDS011;10709;49.006;12.100;2023-02-18T00:48:36;1.77;;;1.47;;
21101;SDS011;10709;49.006;12.100;2023-02-18T00:51:04;2.53;;;1.37;;
21101;SDS011;10709;49.006;12.100;2023-02-18T00:53:31;4.00;;;1.50;;
21101;SDS011;10709;49.006;12.100;2023-02-18T00:55:58;2.83;;;1.40;;
21101;SDS011;10709;49.006;12.100;2023-02-18T00:58:25;2.17;;;1.80;;
21101;SDS011;10709;49.006;12.100;2023-02-18T01:00:52;2.33;;;1.40;;
21101;SDS011;10709;49.006;12.100;2023-02-18T01:03:19;1.83;;;1.50;;
21101;SDS011;10709;49.006;12.100;2023-02-18T01:05:47;1.60;;;1.50;;
21101;SDS011;10709;49.006;12.100;2023-02-18T01:08:15;1.70;;;1.40;;
21101;SDS011;10709;49.006;12.100;2023-02-18T01:10:44;1.90;;;1.50;;
21101;SDS011;10709;49.006;12.100;2023-02-18T01:13:12;1.73;;;1.57;;
21101;SDS011;10709;49.006;12.100;2023-02-18T01:15:40;2.23;;;1.57;;
21101;SDS011;10709;49.006;12.100;2023-02-18T01:18:08;3.43;;;1.67;;
21101;SDS011;10709;49.006;12.100;2023-02-18T01:20:35;2.73;;;1.63;;
21101;SDS011;10709;49.006;12.100;2023-02-18T01:23:03;1.87;;;1.43;;
21101;SDS011;10709;49.006;12.100;2023-02-18T01:25:30;2.67;;;1.50;;
21101;SDS011;10709;49.006;12.100;2023-02-18T01:27:57;1.73;;;1.40;;
21101;SDS011;10709;49.006;12.100;2023-02-18T01:30:23;1.83;;;1.30;;
21101;SDS011;10709;49.006;12.100;2023-02-18T01:32:50;3.47;;;1.60;;
21101;SDS011;10709;49.006;12.100;2023-02-18T01:35:18;1.43;;;1.30;;
21101;SDS011;10709;49.006;12.100;2023-02-18T01:37:45;1.60;;;1.50;;
21101;SDS011;10709;49.006;12.100;2023-02-18T01:40:13;1.50;;;1.40;;
21101;SDS011;10709;49.006;12.100;2023-02-18T01:42:41;1.40;;;1.30;;
21101;SDS011;10709;49.006;12.100;2023-02-18T01:48:26;1.40;;;1.30;;
21101;SDS011;10709;49.006;12.100;2023-02-18T01:50:56;2.53;;;1.60;;
21101;SDS011;10709;49.006;12.100;2023-02-18T01:53:30;2.27;;;1.50;;
21101;SDS011;10709;49.006;12.100;2023-02-18T01:56:03;1.93;;;1.40;;
21101;SDS011;10709;49.006;12.100;2023-02-18T01:58:34;2.00;;;1.43;;
21101;SDS011;10709;49.006;12.100;2023-02-18T02:01:01;1.83;;;1.67;;
21101;SDS011;10709;49.006;12.100;2023-02-18T02:03:27;3.00;;;1.50;;
21101;SDS011;10709;49.006;12.100;2023-02-18T02:05:54;1.50;;;1.40;;
21101;SDS011;10709;49.006;12.100;2023-02-18T02:08:20;1.50;;;1.40;;
21101;SDS011;10709;49.006;12.100;2023-02-18T02:10:52;4.37;;;1.70;;
21101;SDS011;10709;49.006;12.100;2023-02-18T02:16:15;3.40;;;1.87;;
21101;SDS011;10709;49.006;12.100;2023-02-18T02:21:41;1.60;;;1.50;;
21101;SDS011;10709;49.006;12.100;2023-02-18T02:27:11;2.23;;;1.70;;
21101;SDS011;10709;49.006;12.100;2023-02-18T02:32:53;2.43;;;1.80;;
21101;SDS011;10709;49.006;12.100;2023-02-18T02:35:29;4.10;;;1.90;;
21101;SDS011;10709;49.006;12.100;2023-02-18T02:38:04;2.70;;;1.70;;
21101;SDS011;10709;49.006;12.100;2023-02-18T02:46:24;2.70;;;2.17;;
21101;SDS011;10709;49.006;12.100;2023-02-18T02:51:27;2.80;;;2.23;;
21101;SDS011;10709;49.006;12.100;2023-02-18T02:54:08;2.47;;;1.90;;
21101;SDS011;10709;49.006;12.100;2023-02-18T02:56:48;2.63;;;2.23;;
21101;SDS011;10709;49.006;12.100;2023-02-18T02:59:18;3.63;;;2.10;;
21101;SDS011;10709;49.006;12.100;2023-02-18T03:02:07;2.93;;;2.10;;
21101;SDS011;10709;49.006;12.100;2023-02-18T03:09:53;3.40;;;2.13;;
21101;SDS011;10709;49.006;12.100;2023-02-18T03:17:57;2.90;;;2.07;;
21101;SDS011;10709;49.006;12.100;2023-02-18T03:20:35;2.23;;;1.70;;
21101;SDS011;10709;49.006;12.100;2023-02-18T03:23:10;2.70;;;1.90;;
21101;SDS011;10709;49.006;12.100;2023-02-18T03:25:40;2.13;;;1.83;;
21101;SDS011;10709;49.006;12.100;2023-02-18T03:28:08;3.10;;;1.90;;
21101;SDS011;10709;49.006;12.100;2023-02-18T03:33:08;1.93;;;1.60;;
21101;SDS011;10709;49.006;12.100;2023-02-18T03:35:39;1.80;;;1.70;;
21101;SDS011;10709;49.006;12.100;2023-02-18T03:40:35;3.50;;;2.00;;
21101;SDS011;10709;49.006;12.100;2023-02-18T03:43:01;2.20;;;1.70;;
21101;SDS011;10709;49.006;12.100;2023-02-18T03:45:28;3.17;;;1.80;;
21101;SDS011;10709;49.006;12.100;2023-02-18T03:47:54;4.83;;;1.60;;
21101;SDS011;10709;49.006;12.100;2023-02-18T03:50:21;2.83;;;1.57;;
21101;SDS011;10709;49.006;12.100;2023-02-18T03:52:47;1.57;;;1.43;;
21101;SDS011;10709;49.006;12.100;2023-02-18T03:55:14;1.73;;;1.30;;
21101;SDS011;10709;49.006;12.100;2023-02-18T03:57:40;2.73;;;1.47;;
21101;SDS011;10709;49.006;12.100;2023-02-18T04:00:07;2.73;;;1.47;;
21101;SDS011;10709;49.006;12.100;2023-02-18T04:02:36;1.63;;;1.40;;
21101;SDS011;10709;49.006;12.100;2023-02-18T04:05:02;2.20;;;1.17;;
21101;SDS011;10709;49.006;12.100;2023-02-18T04:07:29;1.30;;;1.10;;
21101;SDS011;10709;49.006;12.100;2023-02-18T04:09:55;1.20;;;1.10;;
21101;SDS011;10709;49.006;12.100;2023-02-18T04:12:22;1.37;;;1.17;;
21101;SDS011;10709;49.006;12.100;2023-02-18T04:14:49;1.93;;;1.20;;
21101;SDS011;10709;49.006;12.100;2023-02-18T04:17:16;1.57;;;1.20;;
21101;SDS011;10709;49.006;12.100;2023-02-18T04:19:42;1.70;;;1.10;;
21101;SDS011;10709;49.006;12.100;2023-02-18T04:22:09;2.33;;;1.20;;
21101;SDS011;10709;49.006;12.100;2023-02-18T04:24:35;1.97;;;1.50;;
21101;SDS011;10709;49.006;12.100;2023-02-18T04:27:02;1.47;;;1.30;;
21101;SDS011;10709;49.006;12.100;2023-02-18T04:29:29;2.80;;;1.20;;
21101;SDS011;10709;49.006;12.100;2023-02-18T04:31:55;2.03;;;1.30;;
21101;SDS011;10709;49.006;12.100;2023-02-18T04:34:22;2.40;;;1.30;;
21101;SDS011;10709;49.006;12.100;2023-02-18T04:36:48;1.47;;;1.00;;
21101;SDS011;10709;49.006;12.100;2023-02-18T04:39:15;1.50;;;1.20;;
21101;SDS011;10709;49.006;12.100;2023-02-18T04:41:41;2.13;;;1.40;;
21101;SDS011;10709;49.006;12.100;2023-02-18T04:44:08;2.33;;;1.60;;
21101;SDS011;10709;49.006;12.100;2023-02-18T04:46:35;2.10;;;1.40;;
21101;SDS011;10709;49.006;12.100;2023-02-18T04:49:01;2.03;;;1.50;;
21101;SDS011;10709;49.006;12.100;2023-02-18T04:51:28;1.90;;;1.30;;
21101;SDS011;10709;49.006;12.100;2023-02-18T04:53:54;2.27;;;1.50;;
21101;SDS011;10709;49.006;12.100;2023-02-18T04:56:21;2.37;;;1.33;;
21101;SDS011;10709;49.006;12.100;2023-02-18T04:58:47;2.00;;;1.70;;
21101;SDS011;10709;49.006;12.100;2023-02-18T05:01:13;2.00;;;1.40;;
21101;SDS011;10709;49.006;12.100;2023-02-18T05:03:40;2.50;;;1.70;;
21101;SDS011;10709;49.006;12.100;2023-02-18T05:06:06;3.37;;;1.70;;
21101;SDS011;10709;49.006;12.100;2023-02-18T05:08:33;2.10;;;1.70;;
21101;SDS011;10709;49.006;12.100;2023-02-18T05:11:03;2.77;;;1.80;;
21101;SDS011;10709;49.006;12.100;2023-02-18T05:13:31;1.57;;;1.47;;
21101;SDS011;10709;49.006;12.100;2023-02-18T05:15:57;2.87;;;1.90;;
21101;SDS011;10709;49.006;12.100;2023-02-18T05:18:24;1.80;;;1.70;;
21101;SDS011;10709;49.006;12.100;2023-02-18T05:20:51;5.13;;;1.80;;
21101;SDS011;10709;49.006;12.100;2023-02-18T05:23:17;2.90;;;1.80;;
21101;SDS011;10709;49.006;12.100;2023-02-18T05:25:46;3.93;;;1.90;;
21101;SDS011;10709;49.006;12.100;2023-02-18T05:28:12;2.77;;;1.90;;
21101;SDS011;10709;49.006;12.100;2023-02-18T05:30:39;2.10;;;1.90;;
21101;SDS011;10709;49.006;12.100;2023-02-18T05:33:05;2.17;;;1.90;;
21101;SDS011;10709;49.006;12.100;2023-02-18T05:35:32;3.13;;;2.00;;
21101;SDS011;10709;49.006;12.100;2023-02-18T05:37:58;2.67;;;1.97;;
21101;SDS011;10709;49.006;12.100;2023-02-18T05:40:25;3.47;;;2.00;;
21101;SDS011;10709;49.006;12.100;2023-02-18T05:42:51;2.10;;;1.90;;
21101;SDS011;10709;49.006;12.100;2023-02-18T05:45:18;2.17;;;1.97;;
21101;SDS011;10709;49.006;12.100;2023-02-18T05:47:44;2.63;;;2.17;;
21101;SDS011;10709;49.006;12.100;2023-02-18T05:50:11;2.10;;;1.90;;
21101;SDS011;10709;49.006;12.100;2023-02-18T05:52:38;3.53;;;2.20;;
21101;SDS011;10709;49.006;12.100;2023-02-18T05:55:04;2.27;;;1.90;;
21101;SDS011;10709;49.006;12.100;2023-02-18T05:57:31;2.43;;;2.07;;
21101;SDS011;10709;49.006;12.100;2023-02-18T05:59:58;2.57;;;2.20;;
21101;SDS011;10709;49.006;12.100;2023-02-18T06:02:25;2.33;;;2.03;;
21101;SDS011;10709;49.006;12.100;2023-02-18T06:04:52;2.60;;;2.10;;
21101;SDS011;10709;49.006;12.100;2023-02-18T06:07:18;3.83;;;2.50;;
21101;SDS011;10709;49.006;12.100;2023-02-18T06:09:46;4.10;;;2.00;;
21101;SDS011;10709;49.006;12.100;2023-02-18T06:12:12;3.50;;;2.20;;
21101;SDS011;10709;49.006;12.100;2023-02-18T06:14:39;2.80;;;2.20;;
21101;SDS011;10709;49.006;12.100;2023-02-18T06:17:08;2.30;;;2.10;;
21101;SDS011;10709;49.006;12.100;2023-02-18T06:19:36;3.00;;;2.63;;
21101;SDS011;10709;49.006;12.100;2023-02-18T06:22:03;2.70;;;2.40;;
21101;SDS011;10709;49.006;12.100;2023-02-18T06:24:29;3.33;;;2.60;;
21101;SDS011;10709;49.006;12.100;2023-02-18T06:26:56;4.30;;;2.80;;
21101;SDS011;10709;49.006;12.100;2023-02-18T06:29:22;3.17;;;2.30;;
21101;SDS011;10709;49.006;12.100;2023-02-18T06:31:49;3.07;;;2.43;;
21101;SDS011;10709;49.006;12.100;2023-02-18T06:34:16;3.40;;;2.63;;
21101;SDS011;10709;49.006;12.100;2023-02-18T06:36:42;3.17;;;2.50;;
21101;SDS011;10709;49.006;12.100;2023-02-18T06:39:09;3.20;;;2.57;;
21101;SDS011;10709;49.006;12.100;2023-02-18T06:41:36;3.23;;;2.50;;
21101;SDS011;10709;49.006;12.100;2023-02-18T06:44:02;3.13;;;2.63;;
21101;SDS011;10709;49.006;12.100;2023-02-18T06:46:29;2.60;;;2.30;;
21101;SDS011;10709;49.006;12.100;2023-02-18T06:48:55;3.67;;;2.80;;
21101;SDS011;10709;49.006;12.100;2023-02-18T06:51:22;2.97;;;2.43;;
21101;SDS011;10709;49.006;12.100;2023-02-18T06:53:48;3.57;;;2.90;;
21101;SDS011;10709;49.006;12.100;2023-02-18T06:56:15;3.23;;;2.60;;
21101;SDS011;10709;49.006;12.100;2023-02-18T06:58:42;3.83;;;2.63;;
21101;SDS011;10709;49.006;12.100;2023-02-18T07:01:08;3.23;;;2.80;;
21101;SDS011;10709;49.006;12.100;2023-02-18T07:03:35;3.13;;;2.47;;
21101;SDS011;10709;49.006;12.100;2023-02-18T07:06:02;4.27;;;2.83;;
21101;SDS011;10709;49.006;12.100;2023-02-18T07:08:28;3.70;;;2.93;;
21101;SDS011;10709;49.006;12.100;2023-02-18T07:10:56;4.00;;;2.60;;
21101;SDS011;10709;49.006;12.100;2023-02-18T07:13:22;3.77;;;3.03;;
21101;SDS011;10709;49.006;12.100;2023-02-18T07:15:48;5.73;;;3.00;;
21101;SDS011;10709;49.006;12.100;2023-02-18T07:18:15;4.87;;;3.20;;
21101;SDS011;10709;49.006;12.100;2023-02-18T07:20:41;3.43;;;3.03;;
21101;SDS011;10709;49.006;12.100;2023-02-18T07:23:08;3.20;;;2.90;;
21101;SDS011;10709;49.006;12.100;2023-02-18T07:25:36;4.53;;;2.97;;
21101;SDS011;10709;49.006;12.100;2023-02-18T07:28:03;5.83;;;3.20;;
21101;SDS011;10709;49.006;12.100;2023-02-18T07:30:29;3.97;;;3.40;;
21101;SDS011;10709;49.006;12.100;2023-02-18T07:32:56;4.47;;;3.27;;
21101;SDS011;10709;49.006;12.100;2023-02-18T07:35:22;5.27;;;3.30;;
21101;SDS011;10709;49.006;12.100;2023-02-18T07:37:49;5.10;;;3.13;;
21101;SDS011;10709;49.006;12.100;2023-02-18T07:40:18;3.83;;;3.27;;
21101;SDS011;10709;49.006;12.100;2023-02-18T07:42:46;4.87;;;3.47;;
21101;SDS011;10709;49.006;12.100;2023-02-18T07:45:13;7.03;;;3.53;;
21101;SDS011;10709;49.006;12.100;2023-02-18T07:47:40;6.80;;;3.80;;
21101;SDS011;10709;49.006;12.100;2023-02-18T07:50:07;4.30;;;3.13;;
21101;SDS011;10709;49.006;12.100;2023-02-18T07:52:34;5.90;;;3.50;;
21101;SDS011;10709;49.006;12.100;2023-02-18T07:55:01;4.73;;;2.73;;
21101;SDS011;10709;49.006;12.100;2023-02-18T07:57:27;3.40;;;2.67;;
21101;SDS011;10709;49.006;12.100;2023-02-18T07:59:54;3.43;;;2.80;;
21101;SDS011;10709;49.006;12.100;2023-02-18T08:02:21;3.88;;;3.00;;
21101;SDS011;10709;49.006;12.100;2023-02-18T08:04:49;2.33;;;2.10;;
21101;SDS011;10709;49.006;12.100;2023-02-18T08:07:17;3.13;;;2.10;;
21101;SDS011;10709;49.006;12.100;2023-02-18T08:09:45;4.60;;;2.00;;
21101;SDS011;10709;49.006;12.100;2023-02-18T08:12:12;3.50;;;2.70;;
21101;SDS011;10709;49.006;12.100;2023-02-18T08:14:39;2.40;;;1.87;;
21101;SDS011;10709;49.006;12.100;2023-02-18T08:17:06;2.40;;;2.00;;
21101;SDS011;10709;49.006;12.100;2023-02-18T08:19:33;4.20;;;2.30;;
21101;SDS011;10709;49.006;12.100;2023-02-18T08:22:00;17.00;;;7.90;;
21101;SDS011;10709;49.006;12.100;2023-02-18T08:24:28;6.20;;;2.80;;
21101;SDS011;10709;49.006;12.100;2023-02-18T08:26:54;3.03;;;2.10;;
21101;SDS011;10709;49.006;12.100;2023-02-18T08:29:26;4.17;;;1.90;;
21101;SDS011;10709;49.006;12.100;2023-02-18T08:31:53;2.40;;;2.00;;
21101;SDS011;10709;49.006;12.100;2023-02-18T08:34:22;3.53;;;2.10;;
21101;SDS011;10709;49.006;12.100;2023-02-18T08:36:48;3.23;;;2.00;;
21101;SDS011;10709;49.006;12.100;2023-02-18T08:39:15;2.00;;;1.80;;
21101;SDS011;10709;49.006;12.100;2023-02-18T08:41:41;2.73;;;2.17;;
21101;SDS011;10709;49.006;12.100;2023-02-18T08:44:08;2.00;;;1.77;;
21101;SDS011;10709;49.006;12.100;2023-02-18T08:46:34;2.17;;;1.90;;
21101;SDS011;10709;49.006;12.100;2023-02-18T08:49:02;2.40;;;1.80;;
21101;SDS011;10709;49.006;12.100;2023-02-18T08:51:29;2.10;;;1.90;;
21101;SDS011;10709;49.006;12.100;2023-02-18T08:53:56;3.47;;;2.10;;
21101;SDS011;10709;49.006;12.100;2023-02-18T08:56:23;2.47;;;1.73;;
21101;SDS011;10709;49.006;12.100;2023-02-18T08:58:52;2.70;;;1.97;;
21101;SDS011;10709;49.006;12.100;2023-02-18T09:01:18;2.17;;;1.97;;
21101;SDS011;10709;49.006;12.100;2023-02-18T09:03:46;2.47;;;1.70;;
21101;SDS011;10709;49.006;12.100;2023-02-18T09:06:13;2.50;;;1.83;;
21101;SDS011;10709;49.006;12.100;2023-02-18T09:08:39;3.07;;;2.03;;
21101;SDS011;10709;49.006;12.100;2023-02-18T09:11:06;3.97;;;2.03;;
21101;SDS011;10709;49.006;12.100;2023-02-18T09:13:33;1.77;;;1.67;;
21101;SDS011;10709;49.006;12.100;2023-02-18T09:16:04;2.43;;;1.70;;
21101;SDS011;10709;49.006;12.100;2023-02-18T09:18:33;2.27;;;1.50;;
21101;SDS011;10709;49.006;12.100;2023-02-18T09:21:01;2.07;;;1.80;;
21101;SDS011;10709;49.006;12.100;2023-02-18T09:23:29;2.37;;;1.73;;
21101;SDS011;10709;49.006;12.100;2023-02-18T09:25:57;3.07;;;1.43;;
21101;SDS011;10709;49.006;12.100;2023-02-18T09:28:25;1.80;;;1.50;;
21101;SDS011;10709;49.006;12.100;2023-02-18T09:30:52;2.13;;;1.60;;
21101;SDS011;10709;49.006;12.100;2023-02-18T09:33:18;2.67;;;1.60;;
21101;SDS011;10709;49.006;12.100;2023-02-18T09:35:45;2.03;;;1.67;;
21101;SDS011;10709;49.006;12.100;2023-02-18T09:38:13;2.40;;;1.70;;
21101;SDS011;10709;49.006;12.100;2023-02-18T09:40:42;1.63;;;1.27;;
21101;SDS011;10709;49.006;12.100;2023-02-18T09:43:47;2.60;;;1.50;;
21101;SDS011;10709;49.006;12.100;2023-02-18T09:46:55;3.63;;;1.50;;
21101;SDS011;10709;49.006;12.100;2023-02-18T09:49:13;1.70;;;1.50;;
21101;SDS011;10709;49.006;12.100;2023-02-18T09:51:42;2.60;;;1.60;;
21101;SDS011;10709;49.006;12.100;2023-02-18T09:54:13;1.47;;;1.30;;
21101;SDS011;10709;49.006;12.100;2023-02-18T09:56:42;1.77;;;1.50;;
21101;SDS011;10709;49.006;12.100;2023-02-18T09:59:12;1.87;;;1.40;;
21101;SDS011;10709;49.006;12.100;2023-02-18T10:01:43;1.97;;;1.40;;
21101;SDS011;10709;49.006;12.100;2023-02-18T10:04:16;1.77;;;1.50;;
21101;SDS011;10709;49.006;12.100;2023-02-18T10:06:46;1.70;;;1.30;;
21101;SDS011;10709;49.006;12.100;2023-02-18T10:09:22;1.83;;;1.37;;
21101;SDS011;10709;49.006;12.100;2023-02-18T10:12:03;1.60;;;1.50;;
21101;SDS011;10709;49.006;12.100;2023-02-18T10:14:32;2.37;;;1.47;;
21101;SDS011;10709;49.006;12.100;2023-02-18T10:17:01;4.17;;;1.43;;
21101;SDS011;10709;49.006;12.100;2023-02-18T10:19:32;1.90;;;1.30;;
21101;SDS011;10709;49.006;12.100;2023-02-18T10:22:03;2.17;;;1.53;;
21101;SDS011;10709;49.006;12.100;2023-02-18T10:24:41;1.80;;;1.40;;
21101;SDS011;10709;49.006;12.100;2023-02-18T10:27:14;1.93;;;1.50;;
21101;SDS011;10709;49.006;12.100;2023-02-18T10:29:46;3.10;;;1.57;;
21101;SDS011;10709;49.006;12.100;2023-02-18T10:40:30;1.70;;;1.47;;
21101;SDS011;10709;49.006;12.100;2023-02-18T10:48:53;1.57;;;1.40;;
21101;SDS011;10709;49.006;12.100;2023-02-18T10:51:24;2.80;;;1.70;;
21101;SDS011;10709;49.006;12.100;2023-02-18T10:53:54;2.10;;;1.57;;
21101;SDS011;10709;49.006;12.100;2023-02-18T10:59:08;1.83;;;1.40;;
21101;SDS011;10709;49.006;12.100;2023-02-18T11:01:37;2.40;;;1.70;;
21101;SDS011;10709;49.006;12.100;2023-02-18T11:04:06;3.00;;;1.40;;
21101;SDS011;10709;49.006;12.100;2023-02-18T11:06:45;2.47;;;1.67;;
21101;SDS011;10709;49.006;12.100;2023-02-18T11:09:22;2.37;;;1.60;;
21101;SDS011;10709;49.006;12.100;2023-02-18T11:11:50;1.50;;;1.37;;
21101;SDS011;10709;49.006;12.100;2023-02-18T11:14:37;1.70;;;1.50;;
21101;SDS011;10709;49.006;12.100;2023-02-18T11:19:52;2.30;;;1.80;;
21101;SDS011;10709;49.006;12.100;2023-02-18T11:22:22;2.90;;;1.60;;
21101;SDS011;10709;49.006;12.100;2023-02-18T11:24:59;2.53;;;1.50;;
21101;SDS011;10709;49.006;12.100;2023-02-18T11:27:37;2.53;;;1.30;;
21101;SDS011;10709;49.006;12.100;2023-02-18T11:33:07;2.30;;;1.40;;
21101;SDS011;10709;49.006;12.100;2023-02-18T11:35:41;2.30;;;1.50;;
21101;SDS011;10709;49.006;12.100;2023-02-18T11:40:54;1.63;;;1.50;;
21101;SDS011;10709;49.006;12.100;2023-02-18T11:43:23;2.70;;;1.80;;
21101;SDS011;10709;49.006;12.100;2023-02-18T11:46:10;2.37;;;1.60;;
21101;SDS011;10709;49.006;12.100;2023-02-18T11:48:45;2.00;;;1.53;;
21101;SDS011;10709;49.006;12.100;2023-02-18T11:51:16;1.73;;;1.40;;
21101;SDS011;10709;49.006;12.100;2023-02-18T11:56:27;1.77;;;1.30;;
21101;SDS011;10709;49.006;12.100;2023-02-18T11:58:56;1.70;;;1.10;;
21101;SDS011;10709;49.006;12.100;2023-02-18T12:04:15;1.80;;;1.40;;
21101;SDS011;10709;49.006;12.100;2023-02-18T12:06:48;2.57;;;1.37;;
21101;SDS011;10709;49.006;12.100;2023-02-18T12:09:22;4.93;;;2.00;;
21101;SDS011;10709;49.006;12.100;2023-02-18T12:12:16;2.53;;;1.33;;
21101;SDS011;10709;49.006;12.100;2023-02-18T12:14:49;1.57;;;1.40;;
21101;SDS011;10709;49.006;12.100;2023-02-18T12:51:09;1.90;;;1.40;;
21101;SDS011;10709;49.006;12.100;2023-02-18T12:53:57;1.47;;;1.00;;
21101;SDS011;10709;49.006;12.100;2023-02-18T13:02:09;1.73;;;1.20;;
21101;SDS011;10709;49.006;12.100;2023-02-18T13:04:59;1.20;;;1.10;;
21101;SDS011;10709;49.006;12.100;2023-02-18T13:12:57;1.53;;;1.20;;
21101;SDS011;10709;49.006;12.100;2023-02-18T13:17:59;1.90;;;1.10;;
21101;SDS011;10709;49.006;12.100;2023-02-18T13:20:41;1.27;;;1.10;;
21101;SDS011;10709;49.006;12.100;2023-02-18T13:23:15;2.13;;;1.03;;
21101;SDS011;10709;49.006;12.100;2023-02-18T13:25:44;1.10;;;1.00;;
21101;SDS011;10709;49.006;12.100;2023-02-18T13:28:18;2.17;;;1.00;;
21101;SDS011;10709;49.006;12.100;2023-02-18T13:34:01;1.70;;;1.13;;
21101;SDS011;10709;49.006;12.100;2023-02-18T13:39:33;1.60;;;1.17;;
21101;SDS011;10709;49.006;12.100;2023-02-18T13:47:39;2.73;;;1.60;;
21101;SDS011;10709;49.006;12.100;2023-02-18T13:53:13;3.97;;;1.50;;
21101;SDS011;10709;49.006;12.100;2023-02-18T13:55:49;1.73;;;1.23;;
21101;SDS011;10709;49.006;12.100;2023-02-18T13:58:20;1.87;;;1.30;;
21101;SDS011;10709;49.006;12.100;2023-02-18T14:00:59;2.10;;;1.40;;
21101;SDS011;10709;49.006;12.100;2023-02-18T14:05:56;1.97;;;1.30;;
21101;SDS011;10709;49.006;12.100;2023-02-18T14:08:43;2.13;;;1.20;;
21101;SDS011;10709;49.006;12.100;2023-02-18T14:13:38;2.03;;;1.40;;
21101;SDS011;10709;49.006;12.100;2023-02-18T14:17:40;1.67;;;1.30;;
21101;SDS011;10709;49.006;12.100;2023-02-18T14:22:46;3.27;;;1.50;;
21101;SDS011;10709;49.006;12.100;2023-02-18T14:25:15;1.53;;;1.30;;
21101;SDS011;10709;49.006;12.100;2023-02-18T14:27:50;1.87;;;1.20;;
21101;SDS011;10709;49.006;12.100;2023-02-18T14:32:48;1.80;;;1.20;;
21101;SDS011;10709;49.006;12.100;2023-02-18T14:35:37;1.47;;;1.33;;
21101;SDS011;10709;49.006;12.100;2023-02-18T14:41:06;1.60;;;1.30;;
21101;SDS011;10709;49.006;12.100;2023-02-18T14:46:24;1.20;;;1.10;;
21101;SDS011;10709;49.006;12.100;2023-02-18T14:49:08;1.67;;;1.20;;
21101;SDS011;10709;49.006;12.100;2023-02-18T14:51:44;2.33;;;1.50;;
21101;SDS011;10709;49.006;12.100;2023-02-18T14:54:15;2.03;;;1.20;;
21101;SDS011;10709;49.006;12.100;2023-02-18T14:56:50;1.67;;;1.40;;
21101;SDS011;10709;49.006;12.100;2023-02-18T14:59:20;2.27;;;1.10;;
21101;SDS011;10709;49.006;12.100;2023-02-18T15:01:52;2.33;;;1.50;;
21101;SDS011;10709;49.006;12.100;2023-02-18T15:04:20;2.53;;;1.60;;
21101;SDS011;10709;49.006;12.100;2023-02-18T15:07:02;3.40;;;1.37;;
21101;SDS011;10709;49.006;12.100;2023-02-18T15:09:30;3.20;;;1.50;;
21101;SDS011;10709;49.006;12.100;2023-02-18T15:12:01;2.27;;;1.40;;
21101;SDS011;10709;49.006;12.100;2023-02-18T15:14:33;1.40;;;1.30;;
21101;SDS011;10709;49.006;12.100;2023-02-18T15:17:03;3.67;;;1.70;;
21101;SDS011;10709;49.006;12.100;2023-02-18T15:19:35;2.20;;;1.43;;
21101;SDS011;10709;49.006;12.100;2023-02-18T15:22:05;3.07;;;1.60;;
21101;SDS011;10709;49.006;12.100;2023-02-18T15:24:38;1.97;;;1.63;;
21101;SDS011;10709;49.006;12.100;2023-02-18T15:27:15;1.97;;;1.70;;
21101;SDS011;10709;49.006;12.100;2023-02-18T15:29:48;3.00;;;1.70;;
21101;SDS011;10709;49.006;12.100;2023-02-18T15:32:17;2.70;;;1.50;;
21101;SDS011;10709;49.006;12.100;2023-02-18T15:34:51;2.13;;;1.57;;
21101;SDS011;10709;49.006;12.100;2023-02-18T15:37:19;2.33;;;1.70;;
21101;SDS011;10709;49.006;12.100;2023-02-18T15:39:46;3.10;;;1.50;;
21101;SDS011;10709;49.006;12.100;2023-02-18T15:42:32;3.40;;;1.50;;
21101;SDS011;10709;49.006;12.100;2023-02-18T15:47:43;2.80;;;1.60;;
21101;SDS011;10709;49.006;12.100;2023-02-18T15:50:21;2.40;;;1.50;;
21101;SDS011;10709;49.006;12.100;2023-02-18T15:52:58;2.13;;;1.73;;
21101;SDS011;10709;49.006;12.100;2023-02-18T15:55:34;1.70;;;1.60;;
21101;SDS011;10709;49.006;12.100;2023-02-18T15:58:04;2.20;;;2.00;;
21101;SDS011;10709;49.006;12.100;2023-02-18T16:00:40;3.53;;;2.20;;
21101;SDS011;10709;49.006;12.100;2023-02-18T16:03:19;3.90;;;1.80;;
21101;SDS011;10709;49.006;12.100;2023-02-18T16:05:48;2.60;;;1.97;;
21101;SDS011;10709;49.006;12.100;2023-02-18T16:08:23;2.00;;;1.73;;
21101;SDS011;10709;49.006;12.100;2023-02-18T16:10:53;3.33;;;1.97;;
21101;SDS011;10709;49.006;12.100;2023-02-18T16:13:22;2.10;;;1.60;;
21101;SDS011;10709;49.006;12.100;2023-02-18T16:15:51;3.73;;;2.40;;
21101;SDS011;10709;49.006;12.100;2023-02-18T16:23:45;4.97;;;2.10;;
21101;SDS011;10709;49.006;12.100;2023-02-18T16:32:11;2.30;;;1.90;;
21101;SDS011;10709;49.006;12.100;2023-02-18T16:34:37;3.60;;;2.43;;
21101;SDS011;10709;49.006;12.100;2023-02-18T16:37:05;3.97;;;2.10;;
21101;SDS011;10709;49.006;12.100;2023-02-18T16:39:50;3.23;;;2.07;;
21101;SDS011;10709;49.006;12.100;2023-02-18T16:42:19;5.43;;;3.43;;
21101;SDS011;10709;49.006;12.100;2023-02-18T16:44:46;3.53;;;2.10;;
21101;SDS011;10709;49.006;12.100;2023-02-18T16:47:14;5.07;;;3.30;;
21101;SDS011;10709;49.006;12.100;2023-02-18T16:49:45;6.87;;;3.20;;
21101;SDS011;10709;49.006;12.100;2023-02-18T16:52:15;3.60;;;2.80;;
21101;SDS011;10709;49.006;12.100;2023-02-18T16:54:43;2.87;;;2.53;;
21101;SDS011;10709;49.006;12.100;2023-02-18T16:57:11;5.40;;;2.70;;
21101;SDS011;10709;49.006;12.100;2023-02-18T16:59:37;3.53;;;2.90;;
21101;SDS011;10709;49.006;12.100;2023-02-18T17:02:05;3.90;;;2.93;;
21101;SDS011;10709;49.006;12.100;2023-02-18T17:04:43;3.20;;;2.90;;
21101;SDS011;10709;49.006;12.100;2023-02-18T17:07:10;5.77;;;2.80;;
21101;SDS011;10709;49.006;12.100;2023-02-18T17:09:37;4.57;;;3.13;;
21101;SDS011;10709;49.006;12.100;2023-02-18T17:12:03;3.97;;;3.17;;
21101;SDS011;10709;49.006;12.100;2023-02-18T17:14:30;3.80;;;3.10;;
21101;SDS011;10709;49.006;12.100;2023-02-18T17:16:56;4.33;;;3.30;;
21101;SDS011;10709;49.006;12.100;2023-02-18T17:19:23;3.90;;;3.00;;
21101;SDS011;10709;49.006;12.100;2023-02-18T17:21:49;4.10;;;3.23;;
21101;SDS011;10709;49.006;12.100;2023-02-18T17:24:17;4.00;;;3.60;;
21101;SDS011;10709;49.006;12.100;2023-02-18T17:26:44;3.83;;;3.13;;
21101;SDS011;10709;49.006;12.100;2023-02-18T17:29:10;5.53;;;3.40;;
21101;SDS011;10709;49.006;12.100;2023-02-18T17:31:41;4.70;;;3.27;;